createdAt,value
2023-04-07T00:01:40.472Z,10.80
2023-04-07T00:04:07.690Z,10.80
2023-04-07T00:06:34.876Z,10.80
2023-04-07T00:09:01.975Z,10.70
2023-04-07T00:11:28.981Z,10.70
2023-04-07T00:13:56.319Z,10.60
2023-04-07T00:16:23.629Z,10.60
2023-04-07T00:18:50.564Z,10.60
2023-04-07T00:21:17.469Z,10.60
2023-04-07T00:26:36.168Z,10.50
2023-04-07T00:29:03.200Z,10.50
2023-04-07T00:31:30.512Z,10.40
2023-04-07T00:33:57.945Z,10.40
2023-04-07T00:36:29.780Z,10.20
2023-04-07T00:38:56.780Z,10.10
2023-04-07T00:41:23.704Z,10.10
2023-04-07T00:43:51.913Z,10.00
2023-04-07T00:46:24.350Z,10.00
2023-04-07T00:48:51.372Z,9.90
2023-04-07T00:51:22.790Z,9.80
2023-04-07T00:53:50.234Z,9.80
2023-04-07T00:56:17.226Z,9.70
2023-04-07T00:58:44.239Z,9.50
2023-04-07T01:01:23.680Z,9.40
2023-04-07T01:04:02.648Z,9.30
2023-04-07T01:06:40.586Z,9.30
2023-04-07T01:09:16.689Z,9.30
2023-04-07T01:12:05.332Z,9.20
2023-04-07T01:14:41.230Z,9.20
2023-04-07T01:17:27.450Z,9.20
2023-04-07T01:20:05.294Z,9.20
2023-04-07T01:22:46.989Z,9.20
2023-04-07T01:25:56.846Z,9.20
2023-04-07T01:28:37.194Z,9.10
2023-04-07T01:31:06.175Z,9.00
2023-04-07T01:33:35.448Z,9.00
2023-04-07T01:36:05.595Z,8.90
2023-04-07T01:38:34.113Z,9.00
2023-04-07T01:41:01.907Z,9.00
2023-04-07T01:43:30.414Z,9.00
2023-04-07T01:45:58.165Z,9.00
2023-04-07T01:48:25.913Z,8.90
2023-04-07T01:50:53.384Z,9.00
2023-04-07T01:53:20.748Z,8.90
2023-04-07T01:55:47.754Z,8.90
2023-04-07T01:58:15.415Z,8.80
2023-04-07T02:00:43.662Z,8.80
2023-04-07T02:03:33.637Z,8.70
2023-04-07T02:06:08.010Z,8.60
2023-04-07T02:08:42.657Z,8.60
2023-04-07T02:11:11.773Z,8.50
2023-04-07T02:13:39.645Z,8.40
2023-04-07T02:16:10.576Z,8.40
2023-04-07T02:18:38.655Z,8.40
2023-04-07T02:21:08.746Z,8.40
2023-04-07T02:23:36.538Z,8.30
2023-04-07T02:26:03.491Z,8.20
2023-04-07T02:28:30.515Z,8.10
2023-04-07T02:30:57.408Z,8.00
2023-04-07T02:33:25.414Z,8.00
2023-04-07T02:35:52.375Z,8.00
2023-04-07T02:38:19.383Z,8.00
2023-04-07T02:40:46.292Z,7.90
2023-04-07T02:43:13.815Z,7.90
2023-04-07T02:45:40.860Z,7.90
2023-04-07T02:48:07.803Z,7.90
2023-04-07T02:50:34.771Z,7.90
2023-04-07T02:53:01.712Z,7.90
2023-04-07T02:55:29.816Z,7.90
2023-04-07T02:57:56.780Z,7.80
2023-04-07T03:00:36.896Z,7.80
2023-04-07T03:03:09.661Z,7.90
2023-04-07T03:05:39.159Z,7.90
2023-04-07T03:08:07.032Z,7.90
2023-04-07T03:10:33.994Z,7.90
2023-04-07T03:13:00.967Z,7.90
2023-04-07T03:15:28.893Z,8.00
2023-04-07T03:17:56.203Z,8.00
2023-04-07T03:20:23.491Z,8.00
2023-04-07T03:22:53.716Z,8.10
2023-04-07T03:25:27.465Z,8.20
2023-04-07T03:27:55.486Z,8.20
2023-04-07T03:30:23.384Z,8.20
2023-04-07T03:32:50.336Z,8.20
2023-04-07T03:35:17.400Z,8.30
2023-04-07T03:37:45.052Z,8.20
2023-04-07T03:40:15.892Z,8.20
2023-04-07T03:42:43.816Z,8.20
2023-04-07T03:45:13.127Z,8.20
2023-04-07T03:47:44.994Z,8.20
2023-04-07T03:50:12.648Z,8.20
2023-04-07T03:52:50.565Z,8.20
2023-04-07T03:55:23.882Z,8.20
2023-04-07T03:57:55.412Z,8.20
2023-04-07T04:00:22.782Z,8.20
2023-04-07T04:03:03.924Z,8.10
2023-04-07T04:05:32.040Z,8.10
2023-04-07T04:07:59.266Z,8.10
2023-04-07T04:10:27.432Z,8.10
2023-04-07T04:12:55.647Z,8.10
2023-04-07T04:15:22.638Z,8.10
2023-04-07T04:17:50.926Z,8.10
2023-04-07T04:20:18.827Z,8.10
2023-04-07T04:22:49.357Z,8.10
2023-04-07T04:25:17.868Z,8.10
2023-04-07T04:27:48.971Z,8.10
2023-04-07T04:30:22.543Z,8.20
2023-04-07T04:32:56.318Z,8.20
2023-04-07T04:35:32.283Z,8.10
2023-04-07T04:38:09.170Z,8.10
2023-04-07T04:40:38.030Z,8.10
2023-04-07T04:43:07.101Z,8.20
2023-04-07T04:45:36.668Z,8.10
2023-04-07T04:48:04.888Z,8.10
2023-04-07T04:50:31.870Z,8.10
2023-04-07T04:52:59.645Z,8.10
2023-04-07T04:55:27.071Z,8.00
2023-04-07T04:57:54.964Z,8.10
2023-04-07T05:00:31.188Z,8.00
2023-04-07T05:03:03.437Z,8.00
2023-04-07T05:05:34.537Z,8.00
2023-04-07T05:08:02.204Z,8.00
2023-04-07T05:10:38.376Z,7.90
2023-04-07T05:13:06.772Z,7.90
2023-04-07T05:15:33.864Z,7.90
2023-04-07T05:18:01.031Z,7.70
2023-04-07T05:20:29.101Z,7.70
2023-04-07T05:22:56.504Z,7.70
2023-04-07T05:25:29.898Z,7.70
2023-04-07T05:28:00.133Z,7.60
2023-04-07T05:30:27.532Z,7.60
2023-04-07T05:32:55.317Z,7.60
2023-04-07T05:35:32.157Z,7.60
2023-04-07T05:37:59.409Z,7.70
2023-04-07T05:40:27.132Z,7.60
2023-04-07T05:42:55.964Z,7.50
2023-04-07T05:45:23.379Z,7.40
2023-04-07T05:47:51.633Z,7.30
2023-04-07T05:50:25.729Z,7.20
2023-04-07T05:52:52.835Z,7.10
2023-04-07T05:55:23.738Z,7.10
2023-04-07T05:57:52.048Z,7.00
2023-04-07T06:00:22.137Z,6.90
2023-04-07T06:02:59.818Z,6.90
2023-04-07T06:05:28.242Z,6.90
2023-04-07T06:07:56.933Z,6.90
2023-04-07T06:10:26.699Z,6.90
2023-04-07T06:12:53.629Z,6.80
2023-04-07T06:15:21.290Z,6.80
2023-04-07T06:17:48.278Z,6.80
2023-04-07T06:20:15.312Z,6.90
2023-04-07T06:22:42.197Z,6.90
2023-04-07T06:25:09.735Z,7.00
2023-04-07T06:27:36.819Z,7.10
2023-04-07T06:30:04.378Z,7.20
2023-04-07T06:32:31.707Z,7.20
2023-04-07T06:34:58.767Z,7.30
2023-04-07T06:37:26.136Z,7.30
2023-04-07T06:39:54.539Z,7.30
2023-04-07T06:42:21.459Z,7.40
2023-04-07T06:45:00.010Z,7.60
2023-04-07T06:47:28.229Z,7.70
2023-04-07T06:49:55.319Z,7.80
2023-04-07T06:52:22.260Z,7.90
2023-04-07T06:54:49.222Z,7.90
2023-04-07T06:57:16.384Z,8.00
2023-04-07T06:59:43.543Z,8.10
2023-04-07T07:02:10.681Z,8.20
2023-04-07T07:04:37.843Z,8.30
2023-04-07T07:07:04.868Z,8.40
2023-04-07T07:09:31.726Z,8.50
2023-04-07T07:11:58.758Z,8.50
2023-04-07T07:14:25.789Z,8.60
2023-04-07T07:16:52.723Z,8.60
2023-04-07T07:19:19.681Z,8.70
2023-04-07T07:21:46.664Z,9.00
2023-04-07T07:24:13.643Z,9.10
2023-04-07T07:26:43.472Z,9.20
2023-04-07T07:29:11.344Z,9.40
2023-04-07T07:31:38.462Z,9.50
2023-04-07T07:34:05.606Z,9.60
2023-04-07T07:36:32.622Z,9.70
2023-04-07T07:38:59.598Z,9.70
2023-04-07T07:41:27.180Z,9.80
2023-04-07T07:43:54.413Z,9.80
2023-04-07T07:46:21.397Z,9.80
2023-04-07T07:48:48.305Z,9.90
2023-04-07T07:51:15.557Z,9.90
2023-04-07T07:53:42.541Z,10.00
2023-04-07T07:56:09.522Z,10.10
2023-04-07T07:58:36.546Z,10.10
2023-04-07T08:01:03.626Z,10.20
2023-04-07T08:03:30.870Z,10.30
2023-04-07T08:05:58.032Z,10.50
2023-04-07T08:08:25.016Z,10.70
2023-04-07T08:10:52.924Z,10.90
2023-04-07T08:13:20.044Z,11.10
2023-04-07T08:15:46.994Z,11.30
2023-04-07T08:18:14.167Z,11.20
2023-04-07T08:20:41.233Z,11.20
2023-04-07T08:23:08.180Z,11.10
2023-04-07T08:25:35.576Z,11.30
2023-04-07T08:28:02.720Z,11.40
2023-04-07T08:30:29.674Z,11.40
2023-04-07T08:32:56.855Z,11.50
2023-04-07T08:35:23.862Z,11.50
2023-04-07T08:37:51.011Z,11.50
2023-04-07T08:40:17.984Z,11.70
2023-04-07T08:42:49.789Z,11.90
2023-04-07T08:45:18.587Z,12.00
2023-04-07T08:47:48.220Z,12.00
2023-04-07T08:50:18.264Z,12.10
2023-04-07T08:52:50.704Z,12.30
2023-04-07T08:55:17.762Z,12.30
2023-04-07T08:57:46.459Z,12.20
2023-04-07T09:00:23.614Z,12.20
2023-04-07T09:02:51.928Z,12.20
2023-04-07T09:05:19.012Z,12.30
2023-04-07T09:07:46.109Z,12.50
2023-04-07T09:10:13.136Z,12.70
2023-04-07T09:12:40.377Z,13.00
2023-04-07T09:15:08.467Z,13.10
2023-04-07T09:17:35.521Z,13.20
2023-04-07T09:20:02.963Z,13.30
2023-04-07T09:22:59.912Z,13.40
2023-04-07T09:25:30.235Z,13.40
2023-04-07T09:28:05.207Z,13.50
2023-04-07T09:30:33.919Z,13.50
2023-04-07T09:33:01.975Z,13.70
2023-04-07T09:35:29.797Z,13.70
2023-04-07T09:38:10.656Z,13.70
2023-04-07T09:40:37.724Z,13.60
2023-04-07T09:43:06.517Z,13.60
2023-04-07T09:45:36.612Z,13.60
2023-04-07T09:48:10.878Z,13.70
2023-04-07T09:50:42.175Z,13.70
2023-04-07T09:53:09.295Z,13.60
2023-04-07T09:55:36.978Z,13.60
2023-04-07T09:58:06.330Z,13.70
2023-04-07T10:00:33.668Z,14.00
2023-04-07T10:03:01.890Z,14.10
2023-04-07T10:05:29.541Z,14.40
2023-04-07T10:07:57.023Z,14.60
2023-04-07T10:10:26.536Z,14.50
2023-04-07T10:12:55.458Z,14.60
2023-04-07T10:15:22.929Z,14.60
2023-04-07T10:17:52.131Z,14.60
2023-04-07T10:20:22.716Z,14.60
2023-04-07T10:22:53.835Z,14.60
2023-04-07T10:25:24.681Z,14.80
2023-04-07T10:28:06.881Z,14.90
2023-04-07T10:30:35.232Z,14.80
2023-04-07T10:33:02.485Z,14.80
2023-04-07T10:36:07.789Z,15.20
2023-04-07T10:38:34.917Z,15.20
2023-04-07T10:41:42.681Z,15.30
2023-04-07T10:44:33.645Z,15.30
2023-04-07T10:47:05.854Z,15.30
2023-04-07T10:49:34.988Z,15.40
2023-04-07T10:52:14.784Z,15.60
2023-04-07T10:54:42.799Z,15.50
2023-04-07T10:57:13.085Z,15.20
2023-04-07T10:59:46.939Z,15.20
2023-04-07T11:02:17.516Z,15.20
2023-04-07T11:04:46.826Z,15.30
2023-04-07T11:07:16.560Z,15.20
2023-04-07T11:09:44.062Z,15.30
2023-04-07T11:12:23.946Z,15.50
2023-04-07T11:14:51.116Z,15.80
2023-04-07T11:17:18.181Z,16.00
2023-04-07T11:19:54.652Z,16.10
2023-04-07T11:22:29.926Z,16.30
2023-04-07T11:24:57.634Z,16.40
2023-04-07T11:27:24.678Z,16.30
2023-04-07T11:29:51.652Z,16.30
2023-04-07T11:32:29.738Z,16.50
2023-04-07T11:34:57.596Z,16.50
2023-04-07T11:37:28.843Z,16.60
2023-04-07T11:39:58.543Z,16.40
2023-04-07T11:42:33.537Z,16.30
2023-04-07T11:45:00.991Z,16.50
2023-04-07T11:47:39.758Z,16.60
2023-04-07T11:50:07.840Z,16.50
2023-04-07T11:52:46.889Z,16.40
2023-04-07T11:55:22.802Z,16.40
2023-04-07T11:57:51.849Z,16.30
2023-04-07T12:00:20.309Z,16.30
2023-04-07T12:02:47.514Z,16.30
2023-04-07T12:05:14.896Z,16.40
2023-04-07T12:07:53.880Z,16.60
2023-04-07T12:10:28.101Z,16.70
2023-04-07T12:12:56.342Z,16.70
2023-04-07T12:15:24.432Z,16.60
2023-04-07T12:17:51.447Z,16.50
2023-04-07T12:20:18.800Z,16.30
2023-04-07T12:22:45.711Z,16.20
2023-04-07T12:25:12.600Z,16.40
2023-04-07T12:27:43.629Z,16.60
2023-04-07T12:30:13.116Z,16.80
2023-04-07T12:32:40.460Z,17.00
2023-04-07T12:35:08.405Z,17.00
2023-04-07T12:37:35.769Z,17.00
2023-04-07T12:40:02.801Z,16.90
2023-04-07T12:42:29.752Z,16.90
2023-04-07T12:44:56.881Z,16.90
2023-04-07T12:47:23.973Z,16.90
2023-04-07T12:49:51.123Z,16.80
2023-04-07T12:52:18.285Z,16.80
2023-04-07T12:54:45.452Z,16.90
2023-04-07T12:57:13.011Z,17.00
2023-04-07T12:59:39.947Z,17.00
2023-04-07T13:02:07.358Z,17.00
2023-04-07T13:04:35.396Z,16.90
2023-04-07T13:07:03.238Z,16.70
2023-04-07T13:09:30.287Z,16.70
2023-04-07T13:11:57.964Z,16.70
2023-04-07T13:14:25.288Z,16.60
2023-04-07T13:16:52.477Z,16.80
2023-04-07T13:19:19.555Z,16.80
2023-04-07T13:21:47.797Z,16.80
2023-04-07T13:24:15.843Z,16.90
2023-04-07T13:26:43.104Z,16.80
2023-04-07T13:29:10.095Z,17.10
2023-04-07T13:31:37.097Z,17.30
2023-04-07T13:34:04.145Z,17.40
2023-04-07T13:36:31.188Z,17.40
2023-04-07T13:38:58.118Z,17.40
2023-04-07T13:41:25.056Z,17.40
2023-04-07T13:43:52.135Z,17.00
2023-04-07T13:48:49.427Z,16.90
2023-04-07T13:51:16.925Z,17.00
2023-04-07T13:53:43.868Z,16.80
2023-04-07T13:56:11.000Z,16.90
2023-04-07T13:58:37.953Z,16.90
2023-04-07T14:01:05.089Z,16.80
2023-04-07T14:03:32.877Z,16.90
2023-04-07T14:06:01.491Z,17.10
2023-04-07T14:08:28.429Z,17.30
2023-04-07T14:10:55.537Z,17.40
2023-04-07T14:13:23.076Z,17.50
2023-04-07T14:15:50.765Z,17.50
2023-04-07T14:18:17.741Z,17.50
2023-04-07T14:20:44.835Z,17.60
2023-04-07T14:23:12.181Z,17.80
2023-04-07T14:25:39.101Z,17.80
2023-04-07T14:28:06.368Z,17.80
2023-04-07T14:30:38.686Z,17.80
2023-04-07T14:33:06.082Z,17.90
2023-04-07T14:35:33.184Z,17.80
2023-04-07T14:38:00.332Z,17.60
2023-04-07T14:40:27.309Z,17.50
2023-04-07T14:43:06.983Z,17.50
2023-04-07T14:45:35.768Z,17.50
2023-04-07T14:48:02.955Z,17.40
2023-04-07T14:50:33.713Z,17.20
2023-04-07T14:53:01.459Z,17.30
2023-04-07T14:55:28.994Z,17.20
2023-04-07T14:57:56.027Z,17.10
2023-04-07T15:00:25.272Z,17.20
2023-04-07T15:02:54.403Z,17.20
2023-04-07T15:05:23.052Z,17.20
2023-04-07T15:07:52.366Z,17.20
2023-04-07T15:10:20.321Z,17.20
2023-04-07T15:12:48.702Z,17.30
2023-04-07T15:15:16.239Z,17.20
2023-04-07T15:17:44.781Z,17.20
2023-04-07T15:20:13.073Z,16.90
2023-04-07T15:22:40.437Z,16.90
2023-04-07T15:25:08.006Z,17.00
2023-04-07T15:27:35.194Z,17.00
2023-04-07T15:30:02.361Z,16.90
2023-04-07T15:32:31.898Z,16.80
2023-04-07T15:34:58.874Z,16.60
2023-04-07T15:37:26.394Z,16.50
2023-04-07T15:39:53.442Z,16.50
2023-04-07T15:42:20.402Z,16.50
2023-04-07T15:44:47.401Z,16.60
2023-04-07T15:47:14.415Z,16.60
2023-04-07T15:49:42.196Z,16.60
2023-04-07T15:52:09.409Z,16.60
2023-04-07T15:54:36.391Z,16.50
2023-04-07T15:57:03.460Z,16.60
2023-04-07T15:59:31.075Z,16.70
2023-04-07T16:01:58.715Z,16.60
2023-04-07T16:04:25.874Z,16.50
2023-04-07T16:06:52.908Z,16.50
2023-04-07T16:09:20.005Z,16.60
2023-04-07T16:11:47.082Z,16.70
2023-04-07T16:14:14.065Z,16.60
2023-04-07T16:16:41.752Z,16.60
2023-04-07T16:19:08.954Z,16.40
2023-04-07T16:21:36.026Z,16.20
2023-04-07T16:24:02.936Z,16.00
2023-04-07T16:26:29.954Z,16.00
2023-04-07T16:28:56.888Z,16.10
2023-04-07T16:31:23.906Z,16.20
2023-04-07T16:33:51.582Z,16.20
2023-04-07T16:36:18.668Z,16.20
2023-04-07T16:38:45.875Z,16.20
2023-04-07T16:41:12.781Z,16.00
2023-04-07T16:43:39.731Z,15.80
2023-04-07T16:46:06.937Z,15.60
2023-04-07T16:48:33.869Z,15.40
2023-04-07T16:51:00.883Z,15.50
2023-04-07T16:53:27.868Z,15.50
2023-04-07T16:55:55.294Z,15.50
2023-04-07T16:58:22.391Z,15.50
2023-04-07T17:00:49.311Z,15.40
2023-04-07T17:03:16.657Z,15.30
2023-04-07T17:05:44.692Z,15.20
2023-04-07T17:08:11.914Z,15.10
2023-04-07T17:10:38.894Z,15.00
2023-04-07T17:13:07.007Z,15.00
2023-04-07T17:15:38.619Z,15.10
2023-04-07T17:18:05.762Z,15.10
2023-04-07T17:20:32.856Z,15.10
2023-04-07T17:23:01.620Z,15.10
2023-04-07T17:25:28.548Z,15.00
2023-04-07T17:27:55.508Z,14.90
2023-04-07T17:30:22.637Z,14.80
2023-04-07T17:32:50.736Z,14.70
2023-04-07T17:35:18.071Z,14.70
2023-04-07T17:37:45.222Z,14.70
2023-04-07T17:40:12.808Z,14.70
2023-04-07T17:42:39.876Z,14.70
2023-04-07T17:45:08.301Z,14.60
2023-04-07T17:47:38.839Z,14.60
2023-04-07T17:50:06.962Z,14.60
2023-04-07T17:52:33.888Z,14.60
2023-04-07T17:55:01.707Z,14.60
2023-04-07T17:57:29.113Z,14.50
2023-04-07T17:59:56.117Z,14.60
2023-04-07T18:02:23.382Z,14.50
2023-04-07T18:04:50.604Z,14.50
2023-04-07T18:07:17.865Z,14.50
2023-04-07T18:09:44.861Z,14.40
2023-04-07T18:12:12.218Z,14.30
2023-04-07T18:14:39.326Z,14.30
2023-04-07T18:17:06.386Z,14.20
2023-04-07T18:19:34.004Z,14.00
2023-04-07T18:22:01.199Z,14.00
2023-04-07T18:24:28.397Z,13.90
2023-04-07T18:26:56.701Z,13.80
2023-04-07T18:29:23.902Z,13.70
2023-04-07T18:31:51.310Z,13.70
2023-04-07T18:34:18.413Z,13.70
2023-04-07T18:36:47.474Z,13.60
2023-04-07T18:39:14.455Z,13.60
2023-04-07T18:41:44.607Z,13.60
2023-04-07T18:44:12.322Z,13.60
2023-04-07T18:46:39.637Z,13.40
2023-04-07T18:49:06.777Z,13.30
2023-04-07T18:51:33.760Z,13.20
2023-04-07T18:54:00.749Z,13.10
2023-04-07T18:56:28.279Z,13.00
2023-04-07T18:58:55.366Z,13.00
2023-04-07T19:01:22.478Z,12.90
2023-04-07T19:03:49.720Z,12.80
2023-04-07T19:06:17.433Z,12.80
2023-04-07T19:08:45.308Z,12.70
2023-04-07T19:11:12.317Z,12.50
2023-04-07T19:13:39.286Z,12.50
2023-04-07T19:16:07.536Z,12.50
2023-04-07T19:18:34.688Z,12.50
2023-04-07T19:21:02.102Z,12.40
2023-04-07T19:23:30.622Z,12.40
2023-04-07T19:25:57.615Z,12.40
2023-04-07T19:28:24.609Z,12.30
2023-04-07T19:30:52.077Z,12.20
2023-04-07T19:33:19.014Z,12.10
2023-04-07T19:35:46.337Z,12.10
2023-04-07T19:38:13.307Z,12.00
2023-04-07T19:40:40.917Z,12.00
2023-04-07T19:43:08.273Z,11.90
2023-04-07T19:45:35.284Z,11.80
2023-04-07T19:48:02.282Z,11.60
2023-04-07T19:50:29.522Z,11.30
2023-04-07T19:52:56.927Z,11.20
2023-04-07T19:55:24.118Z,11.10
2023-04-07T19:57:51.097Z,10.90
2023-04-07T20:00:18.590Z,10.90
2023-04-07T20:02:49.732Z,10.70
2023-04-07T20:05:19.512Z,10.50
2023-04-07T20:07:47.085Z,10.30
2023-04-07T20:10:14.032Z,10.30
2023-04-07T20:12:41.078Z,10.20
2023-04-07T20:15:08.762Z,10.10
2023-04-07T20:17:37.050Z,10.10
2023-04-07T20:20:05.619Z,10.00
2023-04-07T20:22:35.433Z,10.00
2023-04-07T20:25:05.528Z,10.00
2023-04-07T20:27:33.506Z,9.90
2023-04-07T20:30:01.251Z,9.90
2023-04-07T20:32:28.557Z,9.90
2023-04-07T20:34:55.831Z,9.90
2023-04-07T20:37:23.612Z,9.80
2023-04-07T20:39:50.604Z,9.70
2023-04-07T20:42:17.607Z,9.70
2023-04-07T20:44:48.744Z,9.60
2023-04-07T20:47:15.652Z,9.60
2023-04-07T20:49:43.947Z,9.70
2023-04-07T20:52:10.994Z,9.70
2023-04-07T20:54:37.910Z,9.80
2023-04-07T20:57:04.861Z,9.90
2023-04-07T20:59:32.672Z,9.90
2023-04-07T21:02:00.293Z,9.90
2023-04-07T21:04:27.629Z,9.90
2023-04-07T21:06:54.618Z,9.90
2023-04-07T21:09:21.613Z,9.90
2023-04-07T21:11:48.578Z,10.00
2023-04-07T21:14:15.666Z,10.00
2023-04-07T21:16:43.412Z,10.00
2023-04-07T21:19:11.078Z,9.90
2023-04-07T21:21:38.001Z,9.90
2023-04-07T21:24:05.200Z,9.90
2023-04-07T21:26:32.461Z,9.90
2023-04-07T21:28:59.357Z,9.90
2023-04-07T21:31:27.155Z,9.90
2023-04-07T21:33:56.950Z,9.90
2023-04-07T21:36:23.954Z,9.80
2023-04-07T21:38:52.288Z,9.70
2023-04-07T21:41:19.192Z,9.80
2023-04-07T21:43:46.132Z,9.80
2023-04-07T21:46:14.210Z,9.70
2023-04-07T21:48:41.200Z,9.80
2023-04-07T21:51:08.149Z,9.80
2023-04-07T21:53:38.173Z,9.70
2023-04-07T21:56:05.804Z,9.70
2023-04-07T21:58:32.730Z,9.60
2023-04-07T22:01:00.055Z,9.60
2023-04-07T22:03:29.488Z,9.60
2023-04-07T22:06:00.333Z,9.60
2023-04-07T22:08:27.449Z,9.60
2023-04-07T22:10:54.742Z,9.50
2023-04-07T22:13:21.692Z,9.50
2023-04-07T22:15:50.162Z,9.50
2023-04-07T22:18:17.186Z,9.50
2023-04-07T22:20:45.074Z,9.40
2023-04-07T22:23:11.963Z,9.30
2023-04-07T22:25:38.970Z,9.30
2023-04-07T22:28:06.058Z,9.30
2023-04-07T22:30:32.972Z,9.30
2023-04-07T22:32:59.954Z,9.30
2023-04-07T22:35:27.045Z,9.40
2023-04-07T22:37:54.133Z,9.50
2023-04-07T22:40:21.022Z,9.50
2023-04-07T22:42:48.115Z,9.40
2023-04-07T22:45:15.300Z,9.40
2023-04-07T22:47:42.579Z,9.40
2023-04-07T22:50:10.065Z,9.50
2023-04-07T22:52:36.970Z,9.40
2023-04-07T22:55:04.221Z,9.50
2023-04-07T22:57:31.085Z,9.40
2023-04-07T22:59:57.972Z,9.40
2023-04-07T23:02:24.964Z,9.60
2023-04-07T23:04:52.069Z,9.50
2023-04-07T23:07:18.991Z,9.50
2023-04-07T23:09:48.976Z,9.40
2023-04-07T23:12:16.112Z,9.30
2023-04-07T23:14:43.041Z,9.30
2023-04-07T23:17:10.941Z,9.20
2023-04-07T23:19:37.935Z,9.20
2023-04-07T23:22:04.841Z,9.30
2023-04-07T23:24:31.728Z,9.20
2023-04-07T23:26:58.813Z,9.20
2023-04-07T23:29:26.002Z,9.20
2023-04-07T23:31:53.063Z,9.10
2023-04-07T23:34:20.084Z,9.10
2023-04-07T23:36:47.357Z,9.10
2023-04-07T23:39:14.326Z,9.30
2023-04-07T23:41:41.370Z,9.40
2023-04-07T23:44:08.367Z,9.40
2023-04-07T23:46:35.506Z,9.50
2023-04-07T23:49:02.823Z,9.50
2023-04-07T23:51:30.589Z,9.50
2023-04-07T23:53:57.556Z,9.60
2023-04-07T23:56:24.714Z,9.50
2023-04-07T23:58:51.739Z,9.60
